createdAt,value
2018-10-19T00:00:06.745Z,1019.12
2018-10-19T00:01:06.669Z,1019.12
2018-10-19T00:02:06.835Z,1019.12
2018-10-19T00:03:06.503Z,1019.08
2018-10-19T00:04:06.421Z,1019.12
2018-10-19T00:05:06.416Z,1019.09
2018-10-19T00:06:06.250Z,1019.09
2018-10-19T00:07:06.187Z,1019.08
2018-10-19T00:08:06.089Z,1019.13
2018-10-19T00:09:06.069Z,1019.08
2018-10-19T00:10:05.924Z,1019.09
2018-10-19T00:11:05.883Z,1019.09
2018-10-19T00:12:05.762Z,1019.11
2018-10-19T00:13:05.677Z,1019.10
2018-10-19T00:14:05.596Z,1019.07
2018-10-19T00:15:05.540Z,1019.08
2018-10-19T00:16:05.435Z,1019.12
2018-10-19T00:17:05.409Z,1019.14
2018-10-19T00:18:05.278Z,1019.13
2018-10-19T00:19:05.190Z,1019.16
2018-10-19T00:20:05.100Z,1019.14
2018-10-19T00:21:05.079Z,1019.10
2018-10-19T00:22:05.243Z,1019.13
2018-10-19T00:23:04.911Z,1019.13
2018-10-19T00:24:04.777Z,1019.15
2018-10-19T00:25:04.692Z,1019.09
2018-10-19T00:26:04.613Z,1019.11
2018-10-19T00:27:04.780Z,1019.09
2018-10-19T00:28:04.455Z,1019.12
2018-10-19T00:29:04.425Z,1019.13
2018-10-19T00:30:04.287Z,1019.12
2018-10-19T00:31:04.200Z,1019.11
2018-10-19T00:32:04.110Z,1019.13
2018-10-19T00:33:04.042Z,1019.15
2018-10-19T00:34:03.953Z,1019.12
2018-10-19T00:35:03.909Z,1019.15
2018-10-19T00:36:03.788Z,1019.19
2018-10-19T00:37:03.964Z,1019.13
2018-10-19T00:38:03.629Z,1019.14
2018-10-19T00:39:03.562Z,1019.17
2018-10-19T00:40:03.465Z,1019.19
2018-10-19T00:41:03.437Z,1019.14
2018-10-19T00:42:03.299Z,1019.16
2018-10-19T00:43:03.211Z,1019.13
2018-10-19T00:44:03.131Z,1019.11
2018-10-19T00:45:03.076Z,1019.07
2018-10-19T00:46:02.964Z,1019.07
2018-10-19T00:47:02.912Z,1019.02
2018-10-19T00:48:02.812Z,1019.02
2018-10-19T00:49:02.715Z,1019.06
2018-10-19T00:50:02.643Z,1019.06
2018-10-19T00:51:02.639Z,1019.02
2018-10-19T00:52:02.477Z,1019.00
2018-10-19T00:53:02.398Z,1019.00
2018-10-19T00:54:02.316Z,1019.04
2018-10-19T00:55:02.250Z,1019.03
2018-10-19T00:56:02.145Z,1019.02
2018-10-19T00:57:02.118Z,1018.96
2018-10-19T00:58:01.980Z,1018.97
2018-10-19T00:59:01.966Z,1018.96
2018-10-19T01:00:01.817Z,1018.99
2018-10-19T01:01:01.731Z,1018.99
2018-10-19T01:02:01.651Z,1018.98
2018-10-19T01:03:01.624Z,1018.98
2018-10-19T01:04:01.491Z,1018.98
2018-10-19T01:05:01.483Z,1018.95
2018-10-19T01:06:01.333Z,1018.94
2018-10-19T01:07:01.245Z,1018.97
2018-10-19T01:08:01.153Z,1018.97
2018-10-19T01:09:01.133Z,1018.96
2018-10-19T01:10:01.009Z,1018.93
2018-10-19T01:11:00.960Z,1018.91
2018-10-19T01:12:00.836Z,1018.92
2018-10-19T01:13:00.744Z,1018.91
2018-10-19T01:14:00.667Z,1018.89
2018-10-19T01:15:00.594Z,1018.90
2018-10-19T01:16:00.509Z,1018.91
2018-10-19T01:17:00.423Z,1018.88
2018-10-19T01:18:00.342Z,1018.91
2018-10-19T01:19:00.256Z,1018.87
2018-10-19T01:20:00.165Z,1018.88
2018-10-19T01:21:00.115Z,1018.89
2018-10-19T01:22:00.008Z,1018.90
2018-10-19T01:22:59.939Z,1018.90
2018-10-19T01:23:59.840Z,1018.87
2018-10-19T01:24:59.753Z,1018.90
2018-10-19T01:25:59.683Z,1018.91
2018-10-19T01:26:59.605Z,1018.93
2018-10-19T01:27:59.524Z,1018.92
2018-10-19T01:28:59.504Z,1018.91
2018-10-19T01:29:59.344Z,1018.91
2018-10-19T01:30:59.268Z,1018.94
2018-10-19T01:31:59.194Z,1018.94
2018-10-19T01:32:59.117Z,1018.97
2018-10-19T01:33:59.019Z,1018.95
2018-10-19T01:34:58.945Z,1018.92
2018-10-19T01:35:58.856Z,1018.93
2018-10-19T01:36:58.769Z,1018.89
2018-10-19T01:37:58.697Z,1018.88
2018-10-19T01:38:58.663Z,1018.89
2018-10-19T01:39:58.536Z,1018.93
2018-10-19T01:40:58.456Z,1018.95
2018-10-19T01:41:58.357Z,1018.90
2018-10-19T01:42:58.283Z,1018.93
2018-10-19T01:43:58.192Z,1018.95
2018-10-19T01:44:58.152Z,1018.94
2018-10-19T01:45:58.035Z,1018.91
2018-10-19T01:46:57.959Z,1018.94
2018-10-19T01:47:57.883Z,1018.92
2018-10-19T01:48:57.783Z,1018.92
2018-10-19T01:49:57.717Z,1018.95
2018-10-19T01:50:57.653Z,1018.95
2018-10-19T01:51:57.547Z,1018.93
2018-10-19T01:52:57.487Z,1018.93
2018-10-19T01:53:57.381Z,1018.93
2018-10-19T01:54:57.305Z,1018.94
2018-10-19T01:55:57.211Z,1018.97
2018-10-19T01:56:57.164Z,1018.97
2018-10-19T01:57:57.044Z,1018.98
2018-10-19T01:58:56.969Z,1018.92
2018-10-19T01:59:56.884Z,1018.92
2018-10-19T02:00:56.800Z,1018.92
2018-10-19T02:01:56.963Z,1018.93
2018-10-19T02:02:56.684Z,1018.88
2018-10-19T02:03:56.548Z,1018.91
2018-10-19T02:04:56.524Z,1018.92
2018-10-19T02:05:56.387Z,1018.92
2018-10-19T02:06:56.311Z,1018.94
2018-10-19T02:07:56.226Z,1018.99
2018-10-19T02:08:56.153Z,1018.95
2018-10-19T02:09:56.062Z,1018.98
2018-10-19T02:10:56.019Z,1018.96
2018-10-19T02:11:55.890Z,1018.99
2018-10-19T02:12:55.815Z,1019.00
2018-10-19T02:13:55.722Z,1018.98
2018-10-19T02:14:55.655Z,1018.98
2018-10-19T02:15:55.560Z,1019.00
2018-10-19T02:16:55.486Z,1018.98
2018-10-19T02:17:55.401Z,1019.01
2018-10-19T02:18:55.313Z,1019.01
2018-10-19T02:19:55.237Z,1019.02
2018-10-19T02:20:55.165Z,1019.01
2018-10-19T02:21:55.068Z,1019.02
2018-10-19T02:22:55.046Z,1019.06
2018-10-19T02:23:54.901Z,1019.00
2018-10-19T02:24:54.813Z,1018.99
2018-10-19T02:25:54.735Z,1018.99
2018-10-19T02:26:54.671Z,1018.99
2018-10-19T02:27:54.576Z,1018.99
2018-10-19T02:28:54.500Z,1019.00
2018-10-19T02:29:54.400Z,1019.02
2018-10-19T02:30:54.324Z,1018.99
2018-10-19T02:31:54.240Z,1019.01
2018-10-19T02:32:54.166Z,1019.00
2018-10-19T02:33:54.084Z,1018.99
2018-10-19T02:34:54.003Z,1019.02
2018-10-19T02:35:53.912Z,1019.01
2018-10-19T02:36:54.127Z,1019.02
2018-10-19T02:37:53.753Z,1018.99
2018-10-19T02:38:53.702Z,1019.02
2018-10-19T02:39:53.595Z,1019.04
2018-10-19T02:40:53.544Z,1019.03
2018-10-19T02:41:53.414Z,1019.03
2018-10-19T02:42:53.344Z,1019.03
2018-10-19T02:43:53.253Z,1019.02
2018-10-19T02:44:53.169Z,1019.06
2018-10-19T02:45:53.087Z,1019.06
2018-10-19T02:46:53.006Z,1019.09
2018-10-19T02:47:52.926Z,1019.08
2018-10-19T02:48:52.842Z,1019.12
2018-10-19T02:49:52.760Z,1019.12
2018-10-19T02:50:52.720Z,1019.11
2018-10-19T02:51:52.592Z,1019.11
2018-10-19T02:52:52.504Z,1019.14
2018-10-19T02:53:52.431Z,1019.11
2018-10-19T02:54:52.343Z,1019.09
2018-10-19T02:55:52.273Z,1019.11
2018-10-19T02:56:52.246Z,1019.12
2018-10-19T02:57:52.091Z,1019.12
2018-10-19T02:58:52.018Z,1019.07
2018-10-19T02:59:51.935Z,1019.08
2018-10-19T03:00:51.857Z,1019.11
2018-10-19T03:01:51.766Z,1019.09
2018-10-19T03:02:51.679Z,1019.06
2018-10-19T03:03:51.602Z,1019.11
2018-10-19T03:04:51.545Z,1019.09
2018-10-19T03:05:51.435Z,1019.12
2018-10-19T03:06:51.356Z,1019.12
2018-10-19T03:07:51.267Z,1019.10
2018-10-19T03:08:51.191Z,1019.15
2018-10-19T03:09:51.108Z,1019.15
2018-10-19T03:10:51.024Z,1019.14
2018-10-19T03:11:50.947Z,1019.13
2018-10-19T03:12:50.857Z,1019.13
2018-10-19T03:13:50.777Z,1019.09
2018-10-19T03:14:50.692Z,1019.14
2018-10-19T03:15:50.606Z,1019.13
2018-10-19T03:16:50.533Z,1019.13
2018-10-19T03:17:50.445Z,1019.14
2018-10-19T03:18:50.354Z,1019.12
2018-10-19T03:19:50.281Z,1019.18
2018-10-19T03:20:50.193Z,1019.15
2018-10-19T03:21:50.126Z,1019.19
2018-10-19T03:22:50.035Z,1019.20
2018-10-19T03:23:49.941Z,1019.22
2018-10-19T03:24:49.868Z,1019.22
2018-10-19T03:25:49.783Z,1019.19
2018-10-19T03:26:49.947Z,1019.16
2018-10-19T03:27:49.623Z,1019.18
2018-10-19T03:28:49.535Z,1019.19
2018-10-19T03:29:49.468Z,1019.22
2018-10-19T03:30:49.471Z,1019.18
2018-10-19T03:31:49.287Z,1019.20
2018-10-19T03:32:49.211Z,1019.20
2018-10-19T03:33:49.131Z,1019.18
2018-10-19T03:34:49.033Z,1019.20
2018-10-19T03:35:48.968Z,1019.18
2018-10-19T03:36:48.869Z,1019.20
2018-10-19T03:37:48.800Z,1019.20
2018-10-19T03:38:48.711Z,1019.21
2018-10-19T03:39:48.669Z,1019.17
2018-10-19T03:40:48.547Z,1019.15
2018-10-19T03:41:48.474Z,1019.12
2018-10-19T03:42:48.387Z,1019.12
2018-10-19T03:43:48.297Z,1019.13
2018-10-19T03:44:48.213Z,1019.14
2018-10-19T03:45:48.131Z,1019.12
2018-10-19T03:46:48.044Z,1019.16
2018-10-19T03:47:47.957Z,1019.16
2018-10-19T03:48:47.880Z,1019.15
2018-10-19T03:49:47.799Z,1019.16
2018-10-19T03:50:47.723Z,1019.17
2018-10-19T03:51:47.639Z,1019.14
2018-10-19T03:52:47.552Z,1019.14
2018-10-19T03:53:47.478Z,1019.12
2018-10-19T03:54:47.383Z,1019.08
2018-10-19T03:55:47.323Z,1019.10
2018-10-19T03:56:47.223Z,1019.13
2018-10-19T03:57:47.132Z,1019.18
2018-10-19T03:58:47.057Z,1019.17
2018-10-19T03:59:46.973Z,1019.20
2018-10-19T04:00:46.902Z,1019.21
2018-10-19T04:01:46.814Z,1019.18
2018-10-19T04:02:46.727Z,1019.18
2018-10-19T04:03:46.675Z,1019.20
2018-10-19T04:04:46.560Z,1019.18
2018-10-19T04:05:46.478Z,1019.21
2018-10-19T04:06:46.403Z,1019.21
2018-10-19T04:07:46.319Z,1019.19
2018-10-19T04:08:46.239Z,1019.20
2018-10-19T04:09:46.147Z,1019.19
2018-10-19T04:10:46.059Z,1019.14
2018-10-19T04:11:45.990Z,1019.19
2018-10-19T04:12:45.903Z,1019.22
2018-10-19T04:13:45.812Z,1019.20
2018-10-19T04:14:45.748Z,1019.21
2018-10-19T04:15:45.647Z,1019.23
2018-10-19T04:16:45.573Z,1019.19
2018-10-19T04:17:45.489Z,1019.21
2018-10-19T04:18:45.402Z,1019.18
2018-10-19T04:19:45.324Z,1019.16
2018-10-19T04:20:45.235Z,1019.16
2018-10-19T04:21:45.164Z,1019.15
2018-10-19T04:22:45.079Z,1019.14
2018-10-19T04:23:45.005Z,1019.11
2018-10-19T04:24:44.916Z,1019.14
2018-10-19T04:25:44.831Z,1019.13
2018-10-19T04:26:44.738Z,1019.15
2018-10-19T04:27:44.723Z,1019.14
2018-10-19T04:28:44.582Z,1019.18
2018-10-19T04:29:44.499Z,1019.15
2018-10-19T04:30:44.417Z,1019.13
2018-10-19T04:31:44.333Z,1019.17
2018-10-19T04:32:44.250Z,1019.16
2018-10-19T04:33:44.167Z,1019.13
2018-10-19T04:34:44.094Z,1019.12
2018-10-19T04:35:44.002Z,1019.17
2018-10-19T04:36:43.916Z,1019.16
2018-10-19T04:37:43.844Z,1019.16
2018-10-19T04:38:43.756Z,1019.16
2018-10-19T04:39:43.666Z,1019.19
2018-10-19T04:40:43.591Z,1019.16
2018-10-19T04:41:43.958Z,1019.18
2018-10-19T04:42:43.415Z,1019.22
2018-10-19T04:43:43.344Z,1019.25
2018-10-19T04:44:43.257Z,1019.23
2018-10-19T04:45:43.178Z,1019.25
2018-10-19T04:46:43.093Z,1019.26
2018-10-19T04:47:43.060Z,1019.25
2018-10-19T04:48:42.926Z,1019.27
2018-10-19T04:49:42.843Z,1019.29
2018-10-19T04:50:42.767Z,1019.27
2018-10-19T04:51:42.679Z,1019.30
2018-10-19T04:52:42.590Z,1019.34
2018-10-19T04:53:42.569Z,1019.33
2018-10-19T04:54:42.433Z,1019.31
2018-10-19T04:55:42.343Z,1019.35
2018-10-19T04:56:42.267Z,1019.34
2018-10-19T04:57:42.258Z,1019.41
2018-10-19T04:58:42.104Z,1019.44
2018-10-19T04:59:42.023Z,1019.43
2018-10-19T05:00:41.934Z,1019.47
2018-10-19T05:01:42.111Z,1019.48
2018-10-19T05:02:41.889Z,1019.48
2018-10-19T05:03:41.677Z,1019.46
2018-10-19T05:04:41.713Z,1019.44
2018-10-19T05:05:41.547Z,1019.45
2018-10-19T05:06:41.480Z,1019.46
2018-10-19T05:07:41.352Z,1019.42
2018-10-19T05:08:41.268Z,1019.42
2018-10-19T05:09:41.195Z,1019.42
2018-10-19T05:10:41.107Z,1019.46
2018-10-19T05:11:41.024Z,1019.48
2018-10-19T05:12:41.089Z,1019.47
2018-10-19T05:13:40.856Z,1019.46
2018-10-19T05:14:40.768Z,1019.45
2018-10-19T05:15:40.708Z,1019.47
2018-10-19T05:16:40.608Z,1019.46
2018-10-19T05:17:40.529Z,1019.46
2018-10-19T05:18:40.441Z,1019.44
2018-10-19T05:19:40.368Z,1019.43
2018-10-19T05:20:40.282Z,1019.45
2018-10-19T05:21:40.199Z,1019.44
2018-10-19T05:22:40.112Z,1019.49
2018-10-19T05:23:40.032Z,1019.49
2018-10-19T05:24:39.973Z,1019.50
2018-10-19T05:25:39.874Z,1019.53
2018-10-19T05:26:40.037Z,1019.55
2018-10-19T05:27:39.696Z,1019.54
2018-10-19T05:28:39.621Z,1019.53
2018-10-19T05:29:39.532Z,1019.59
2018-10-19T05:30:39.456Z,1019.56
2018-10-19T05:31:39.410Z,1019.55
2018-10-19T05:32:39.336Z,1019.54
2018-10-19T05:33:39.208Z,1019.59
2018-10-19T05:34:39.120Z,1019.64
2018-10-19T05:35:39.032Z,1019.67
2018-10-19T05:36:38.956Z,1019.66
2018-10-19T05:37:38.872Z,1019.61
2018-10-19T05:38:38.789Z,1019.63
2018-10-19T05:39:38.713Z,1019.64
2018-10-19T05:40:38.619Z,1019.61
2018-10-19T05:41:38.848Z,1019.61
2018-10-19T05:42:38.461Z,1019.63
2018-10-19T05:43:38.443Z,1019.60
2018-10-19T05:44:38.300Z,1019.61
2018-10-19T05:45:38.209Z,1019.65
2018-10-19T05:46:38.122Z,1019.65
2018-10-19T05:47:38.049Z,1019.64
2018-10-19T05:48:37.961Z,1019.67
2018-10-19T05:49:37.883Z,1019.67
2018-10-19T05:50:37.795Z,1019.65
2018-10-19T05:51:37.712Z,1019.68
2018-10-19T05:52:37.636Z,1019.70
2018-10-19T05:53:37.551Z,1019.70
2018-10-19T05:54:37.464Z,1019.71
2018-10-19T05:55:37.396Z,1019.71
2018-10-19T05:56:37.302Z,1019.73
2018-10-19T05:57:37.222Z,1019.73
2018-10-19T05:58:37.136Z,1019.75
2018-10-19T05:59:37.050Z,1019.77
2018-10-19T06:00:36.970Z,1019.77
2018-10-19T06:01:37.137Z,1019.80
2018-10-19T06:02:36.963Z,1019.76
2018-10-19T06:03:36.723Z,1019.74
2018-10-19T06:04:36.635Z,1019.74
2018-10-19T06:05:36.553Z,1019.77
2018-10-19T06:06:36.478Z,1019.79
2018-10-19T06:07:36.388Z,1019.83
2018-10-19T06:08:36.314Z,1019.76
2018-10-19T06:09:36.221Z,1019.78
2018-10-19T06:10:36.134Z,1019.82
2018-10-19T06:11:36.064Z,1019.84
2018-10-19T06:12:35.976Z,1019.90
2018-10-19T06:13:35.946Z,1019.85
2018-10-19T06:14:35.810Z,1019.83
2018-10-19T06:15:35.724Z,1019.87
2018-10-19T06:16:35.662Z,1019.87
2018-10-19T06:17:35.567Z,1019.87
2018-10-19T06:18:35.480Z,1019.88
2018-10-19T06:19:35.397Z,1019.89
2018-10-19T06:20:35.311Z,1019.88
2018-10-19T06:21:35.228Z,1019.89
2018-10-19T06:22:35.152Z,1019.90
2018-10-19T06:23:35.067Z,1019.93
2018-10-19T06:24:34.993Z,1019.90
2018-10-19T06:25:34.900Z,1019.91
2018-10-19T06:26:34.852Z,1019.87
2018-10-19T06:27:34.751Z,1019.94
2018-10-19T06:28:34.655Z,1019.93
2018-10-19T06:29:34.564Z,1019.96
2018-10-19T06:30:34.489Z,1019.97
2018-10-19T06:31:34.412Z,1020.01
2018-10-19T06:32:34.324Z,1019.98
2018-10-19T06:33:34.251Z,1019.97
2018-10-19T06:34:34.154Z,1019.98
2018-10-19T06:35:34.076Z,1019.97
2018-10-19T06:36:33.990Z,1020.00
2018-10-19T06:37:33.919Z,1019.99
2018-10-19T06:38:33.832Z,1020.00
2018-10-19T06:39:33.742Z,1019.97
2018-10-19T06:40:33.675Z,1020.02
2018-10-19T06:41:33.578Z,1020.05
2018-10-19T06:42:33.488Z,1020.05
2018-10-19T06:43:33.417Z,1020.04
2018-10-19T06:44:33.329Z,1020.08
2018-10-19T06:45:33.250Z,1020.06
2018-10-19T06:46:33.254Z,1020.07
2018-10-19T06:47:33.078Z,1020.09
2018-10-19T06:48:33.002Z,1020.11
2018-10-19T06:49:32.920Z,1020.13
2018-10-19T06:50:32.847Z,1020.13
2018-10-19T06:51:32.751Z,1020.10
2018-10-19T06:52:32.664Z,1020.13
2018-10-19T06:53:32.593Z,1020.17
2018-10-19T06:54:32.506Z,1020.12
2018-10-19T06:55:32.428Z,1020.16
2018-10-19T06:56:32.346Z,1020.14
2018-10-19T06:57:32.254Z,1020.15
2018-10-19T06:58:32.192Z,1020.17
2018-10-19T06:59:32.138Z,1020.15
2018-10-19T07:00:32.011Z,1020.21
2018-10-19T07:01:31.927Z,1020.21
2018-10-19T07:02:31.840Z,1020.18
2018-10-19T07:03:31.768Z,1020.25
2018-10-19T07:04:31.693Z,1020.25
2018-10-19T07:05:31.644Z,1020.25
2018-10-19T07:06:31.522Z,1020.24
2018-10-19T07:07:31.428Z,1020.28
2018-10-19T07:08:31.381Z,1020.30
2018-10-19T07:09:31.271Z,1020.32
2018-10-19T07:10:31.184Z,1020.29
2018-10-19T07:11:31.109Z,1020.31
2018-10-19T07:12:31.022Z,1020.32
2018-10-19T07:13:30.930Z,1020.31
2018-10-19T07:14:30.857Z,1020.32
2018-10-19T07:15:30.815Z,1020.33
2018-10-19T07:16:30.697Z,1020.35
2018-10-19T07:17:30.618Z,1020.33
2018-10-19T07:18:30.520Z,1020.33
2018-10-19T07:19:30.442Z,1020.33
2018-10-19T07:20:30.357Z,1020.36
2018-10-19T07:21:30.325Z,1020.39
2018-10-19T07:22:30.197Z,1020.40
2018-10-19T07:23:30.120Z,1020.39
2018-10-19T07:24:30.031Z,1020.42
2018-10-19T07:25:29.948Z,1020.41
2018-10-19T07:26:29.876Z,1020.42
2018-10-19T07:27:29.784Z,1020.44
2018-10-19T07:28:29.698Z,1020.44
2018-10-19T07:29:29.656Z,1020.48
2018-10-19T07:30:29.530Z,1020.45
2018-10-19T07:31:29.460Z,1020.48
2018-10-19T07:32:29.373Z,1020.50
2018-10-19T07:33:29.281Z,1020.50
2018-10-19T07:34:29.207Z,1020.52
2018-10-19T07:35:29.121Z,1020.49
2018-10-19T07:36:29.136Z,1020.46
2018-10-19T07:37:28.975Z,1020.43
2018-10-19T07:38:28.888Z,1020.45
2018-10-19T07:39:28.795Z,1020.46
2018-10-19T07:40:28.707Z,1020.50
2018-10-19T07:41:28.636Z,1020.49
2018-10-19T07:42:28.598Z,1020.57
2018-10-19T07:43:28.482Z,1020.56
2018-10-19T07:44:28.388Z,1020.54
2018-10-19T07:45:28.298Z,1020.58
2018-10-19T07:46:28.222Z,1020.55
2018-10-19T07:47:28.170Z,1020.55
2018-10-19T07:48:28.088Z,1020.57
2018-10-19T07:49:27.972Z,1020.59
2018-10-19T07:50:27.898Z,1020.62
2018-10-19T07:51:27.808Z,1020.57
2018-10-19T07:52:27.721Z,1020.57
2018-10-19T07:53:27.651Z,1020.60
2018-10-19T07:54:27.594Z,1020.63
2018-10-19T07:55:27.485Z,1020.62
2018-10-19T07:56:27.399Z,1020.63
2018-10-19T07:57:27.329Z,1020.65
2018-10-19T07:58:27.240Z,1020.69
2018-10-19T07:59:27.151Z,1020.67
2018-10-19T08:00:27.091Z,1020.67
2018-10-19T08:01:27.234Z,1020.68
2018-10-19T08:02:26.909Z,1020.68
2018-10-19T08:03:26.828Z,1020.70
2018-10-19T08:04:26.753Z,1020.72
2018-10-19T08:05:26.662Z,1020.72
2018-10-19T08:06:26.588Z,1020.73
2018-10-19T08:07:26.497Z,1020.74
2018-10-19T08:08:26.409Z,1020.78
2018-10-19T08:09:26.338Z,1020.80
2018-10-19T08:10:26.252Z,1020.83
2018-10-19T08:11:26.185Z,1020.82
2018-10-19T08:12:26.087Z,1020.85
2018-10-19T08:13:26.016Z,1020.90
2018-10-19T08:14:25.931Z,1020.90
2018-10-19T08:15:25.851Z,1020.88
2018-10-19T08:16:25.765Z,1020.88
2018-10-19T08:17:25.675Z,1020.90
2018-10-19T08:18:25.611Z,1020.91
2018-10-19T08:19:25.517Z,1020.88
2018-10-19T08:20:25.441Z,1020.92
2018-10-19T08:21:25.349Z,1020.94
2018-10-19T08:22:25.276Z,1020.97
2018-10-19T08:23:25.189Z,1020.98
2018-10-19T08:24:25.113Z,1021.01
2018-10-19T08:25:25.031Z,1021.00
2018-10-19T08:26:24.956Z,1021.01
2018-10-19T08:27:24.898Z,1021.02
2018-10-19T08:28:24.786Z,1021.02
2018-10-19T08:29:24.707Z,1021.05
2018-10-19T08:30:24.629Z,1021.03
2018-10-19T08:31:24.556Z,1021.03
2018-10-19T08:32:24.468Z,1021.01
2018-10-19T08:33:24.377Z,1021.02
2018-10-19T08:34:24.292Z,1021.03
2018-10-19T08:35:24.218Z,1021.03
2018-10-19T08:36:24.132Z,1021.00
2018-10-19T08:37:24.080Z,1021.03
2018-10-19T08:38:23.968Z,1021.02
2018-10-19T08:39:23.892Z,1021.01
2018-10-19T08:40:23.801Z,1020.95
2018-10-19T08:41:23.738Z,1020.97
2018-10-19T08:42:23.642Z,1021.02
2018-10-19T08:43:23.578Z,1021.02
2018-10-19T08:44:23.477Z,1021.03
2018-10-19T08:45:23.408Z,1021.03
2018-10-19T08:46:23.321Z,1021.02
2018-10-19T08:47:23.243Z,1021.05
2018-10-19T08:48:23.167Z,1021.03
2018-10-19T08:49:23.077Z,1021.02
2018-10-19T08:50:23.001Z,1021.01
2018-10-19T08:51:22.918Z,1020.99
2018-10-19T08:52:22.844Z,1021.05
2018-10-19T08:53:22.781Z,1021.05
2018-10-19T08:54:22.677Z,1021.08
2018-10-19T08:55:22.605Z,1021.02
2018-10-19T08:56:22.530Z,1020.99
2018-10-19T08:57:22.435Z,1020.98
2018-10-19T08:58:22.460Z,1021.00
2018-10-19T08:59:22.282Z,1021.00
2018-10-19T09:00:22.190Z,1021.00
2018-10-19T09:01:22.120Z,1021.01
2018-10-19T09:02:22.037Z,1021.00
2018-10-19T09:03:21.989Z,1020.99
2018-10-19T09:04:21.872Z,1021.00
2018-10-19T09:05:21.796Z,1021.06
2018-10-19T09:06:21.706Z,1021.02
2018-10-19T09:07:21.633Z,1021.01
2018-10-19T09:08:21.559Z,1021.05
2018-10-19T09:09:21.465Z,1021.03
2018-10-19T09:10:21.379Z,1021.04
2018-10-19T09:11:21.370Z,1021.05
2018-10-19T09:12:21.232Z,1021.04
2018-10-19T09:13:21.148Z,1021.08
2018-10-19T09:14:21.073Z,1021.08
2018-10-19T09:15:20.991Z,1021.06
2018-10-19T09:16:20.906Z,1021.08
2018-10-19T09:17:20.820Z,1021.07
2018-10-19T09:18:20.762Z,1021.06
2018-10-19T09:19:20.661Z,1021.05
2018-10-19T09:20:20.586Z,1021.10
2018-10-19T09:21:20.494Z,1021.09
2018-10-19T09:22:20.419Z,1021.06
2018-10-19T09:23:20.336Z,1021.02
2018-10-19T09:24:20.262Z,1021.09
2018-10-19T09:25:20.169Z,1021.08
2018-10-19T09:26:20.108Z,1021.13
2018-10-19T09:27:20.007Z,1021.11
2018-10-19T09:28:19.935Z,1021.13
2018-10-19T09:29:19.882Z,1021.09
2018-10-19T09:30:19.772Z,1021.13
2018-10-19T09:31:19.685Z,1021.13
2018-10-19T09:32:19.609Z,1021.17
2018-10-19T09:33:19.525Z,1021.17
2018-10-19T09:34:19.450Z,1021.22
2018-10-19T09:35:19.492Z,1021.18
2018-10-19T09:36:19.414Z,1021.17
2018-10-19T09:37:19.196Z,1021.16
2018-10-19T09:38:19.132Z,1021.19
2018-10-19T09:39:19.037Z,1021.16
2018-10-19T09:40:18.996Z,1021.16
2018-10-19T09:41:18.913Z,1021.15
2018-10-19T09:42:18.795Z,1021.12
2018-10-19T09:43:18.710Z,1021.11
2018-10-19T09:44:18.635Z,1021.12
2018-10-19T09:45:18.551Z,1021.13
2018-10-19T09:46:18.476Z,1021.13
2018-10-19T09:47:18.387Z,1021.12
2018-10-19T09:48:18.308Z,1021.15
2018-10-19T09:49:18.225Z,1021.13
2018-10-19T09:50:18.151Z,1021.14
2018-10-19T09:51:18.071Z,1021.17
2018-10-19T09:52:17.992Z,1021.14
2018-10-19T09:53:17.898Z,1021.12
2018-10-19T09:54:17.823Z,1021.10
2018-10-19T09:55:17.796Z,1021.08
2018-10-19T09:56:17.729Z,1021.07
2018-10-19T09:57:17.574Z,1021.06
2018-10-19T09:58:17.498Z,1021.01
2018-10-19T09:59:17.469Z,1021.03
2018-10-19T10:00:17.336Z,1021.05
2018-10-19T10:01:17.268Z,1021.05
2018-10-19T10:02:17.178Z,1021.05
2018-10-19T10:03:17.243Z,1021.05
2018-10-19T10:04:17.012Z,1021.02
2018-10-19T10:05:17.014Z,1020.99
2018-10-19T10:06:16.855Z,1020.98
2018-10-19T10:07:16.777Z,1021.01
2018-10-19T10:08:16.695Z,1020.98
2018-10-19T10:09:16.611Z,1020.95
2018-10-19T10:10:16.523Z,1020.94
2018-10-19T10:11:16.450Z,1020.91
2018-10-19T10:12:16.378Z,1020.94
2018-10-19T10:13:16.292Z,1020.93
2018-10-19T10:14:16.215Z,1020.96
2018-10-19T10:15:16.318Z,1020.93
2018-10-19T10:16:16.055Z,1020.92
2018-10-19T10:17:16.061Z,1020.94
2018-10-19T10:18:15.889Z,1020.93
2018-10-19T10:19:15.962Z,1020.91
2018-10-19T10:20:15.728Z,1020.93
2018-10-19T10:21:15.665Z,1020.94
2018-10-19T10:22:15.605Z,1020.93
2018-10-19T10:23:15.496Z,1020.93
2018-10-19T10:24:15.402Z,1020.96
2018-10-19T10:25:15.380Z,1020.95
2018-10-19T10:26:15.269Z,1020.97
2018-10-19T10:27:15.165Z,1020.99
2018-10-19T10:28:15.118Z,1020.91
2018-10-19T10:29:15.020Z,1020.91
2018-10-19T10:30:14.931Z,1020.94
2018-10-19T10:31:14.923Z,1020.90
2018-10-19T10:32:14.785Z,1020.93
2018-10-19T10:33:14.689Z,1020.92
2018-10-19T10:34:14.658Z,1020.89
2018-10-19T10:35:14.532Z,1020.86
2018-10-19T10:36:14.456Z,1020.90
2018-10-19T10:37:14.449Z,1020.88
2018-10-19T10:38:14.291Z,1020.84
2018-10-19T10:39:14.371Z,1020.83
2018-10-19T10:40:14.188Z,1020.85
2018-10-19T10:41:14.055Z,1020.83
2018-10-19T10:42:13.969Z,1020.85
2018-10-19T10:43:13.976Z,1020.83
2018-10-19T10:44:13.815Z,1020.84
2018-10-19T10:45:13.737Z,1020.93
2018-10-19T10:46:13.742Z,1020.90
2018-10-19T10:47:13.587Z,1020.93
2018-10-19T10:48:13.496Z,1020.94
2018-10-19T10:49:13.474Z,1020.96
2018-10-19T10:50:13.343Z,1020.92
2018-10-19T10:51:13.257Z,1020.93
2018-10-19T10:52:13.202Z,1020.89
2018-10-19T10:53:13.090Z,1020.85
2018-10-19T10:54:13.017Z,1020.87
2018-10-19T10:55:13.022Z,1020.89
2018-10-19T10:56:12.856Z,1020.87
2018-10-19T10:57:12.784Z,1020.85
2018-10-19T10:58:12.779Z,1020.81
2018-10-19T10:59:12.644Z,1020.80
2018-10-19T11:00:12.545Z,1020.74
2018-10-19T11:01:12.509Z,1020.74
2018-10-19T11:02:12.398Z,1020.71
2018-10-19T11:03:12.320Z,1020.69
2018-10-19T11:04:12.429Z,1020.69
2018-10-19T11:05:12.155Z,1020.73
2018-10-19T11:06:12.080Z,1020.70
2018-10-19T11:07:12.024Z,1020.74
2018-10-19T11:08:11.924Z,1020.73
2018-10-19T11:09:11.844Z,1020.80
2018-10-19T11:10:11.808Z,1020.79
2018-10-19T11:11:11.692Z,1020.80
2018-10-19T11:12:11.604Z,1020.83
2018-10-19T11:13:11.588Z,1020.77
2018-10-19T11:14:11.472Z,1020.77
2018-10-19T11:15:11.383Z,1020.75
2018-10-19T11:16:11.369Z,1020.74
2018-10-19T11:17:11.274Z,1020.74
2018-10-19T11:18:11.149Z,1020.72
2018-10-19T11:19:11.081Z,1020.74
2018-10-19T11:20:10.997Z,1020.70
2018-10-19T11:21:10.922Z,1020.74
2018-10-19T11:22:10.865Z,1020.76
2018-10-19T11:23:10.763Z,1020.73
2018-10-19T11:24:10.787Z,1020.66
2018-10-19T11:25:10.631Z,1020.68
2018-10-19T11:26:10.533Z,1020.64
2018-10-19T11:27:10.456Z,1020.66
2018-10-19T11:28:10.407Z,1020.62
2018-10-19T11:29:10.325Z,1020.63
2018-10-19T11:30:10.228Z,1020.62
2018-10-19T11:31:10.171Z,1020.63
2018-10-19T11:32:10.070Z,1020.62
2018-10-19T11:33:10.000Z,1020.61
2018-10-19T11:34:09.930Z,1020.59
2018-10-19T11:35:09.852Z,1020.59
2018-10-19T11:36:09.776Z,1020.64
2018-10-19T11:37:09.742Z,1020.63
2018-10-19T11:38:09.623Z,1020.57
2018-10-19T11:39:09.550Z,1020.62
2018-10-19T11:40:09.489Z,1020.58
2018-10-19T11:41:09.396Z,1020.58
2018-10-19T11:42:09.322Z,1020.57
2018-10-19T11:43:09.256Z,1020.58
2018-10-19T11:44:09.173Z,1020.60
2018-10-19T11:45:09.105Z,1020.60
2018-10-19T11:46:09.091Z,1020.65
2018-10-19T11:47:08.948Z,1020.55
2018-10-19T11:48:08.873Z,1020.58
2018-10-19T11:49:08.844Z,1020.61
2018-10-19T11:50:08.728Z,1020.60
2018-10-19T11:51:08.653Z,1020.59
2018-10-19T11:52:08.615Z,1020.58
2018-10-19T11:53:08.498Z,1020.60
2018-10-19T11:54:08.421Z,1020.59
2018-10-19T11:55:08.390Z,1020.64
2018-10-19T11:56:08.278Z,1020.63
2018-10-19T11:57:08.279Z,1020.60
2018-10-19T11:58:08.204Z,1020.55
2018-10-19T11:59:08.048Z,1020.56
2018-10-19T12:00:07.974Z,1020.49
2018-10-19T12:01:07.921Z,1020.53
2018-10-19T12:02:07.837Z,1020.53
2018-10-19T12:03:07.750Z,1020.53
2018-10-19T12:04:07.753Z,1020.53